createdAt,value
2018-03-28T00:00:34.779Z,13.23
2018-03-28T00:03:04.985Z,14.10
2018-03-28T00:05:37.893Z,15.73
2018-03-28T00:08:08.302Z,16.13
2018-03-28T00:10:39.688Z,16.50
2018-03-28T00:13:09.953Z,16.27
2018-03-28T00:15:43.160Z,16.27
2018-03-28T00:18:12.770Z,16.00
2018-03-28T00:20:46.500Z,17.40
2018-03-28T00:23:17.208Z,16.63
2018-03-28T00:25:48.915Z,18.60
2018-03-28T00:28:19.520Z,19.90
2018-03-28T00:30:51.648Z,20.47
2018-03-28T00:33:21.856Z,19.97
2018-03-28T00:35:56.294Z,21.17
2018-03-28T00:38:25.983Z,19.50
2018-03-28T00:40:58.336Z,22.67
2018-03-28T00:43:28.007Z,20.80
2018-03-28T00:46:02.351Z,22.30
2018-03-28T00:48:33.670Z,20.93
2018-03-28T00:51:15.600Z,24.37
2018-03-28T00:53:45.774Z,21.17
2018-03-28T00:56:15.470Z,22.43
2018-03-28T00:58:46.290Z,23.03
2018-03-28T01:01:17.426Z,22.60
2018-03-28T01:03:47.461Z,24.77
2018-03-28T01:06:20.593Z,23.93
2018-03-28T01:08:51.431Z,24.23
2018-03-28T01:11:22.123Z,24.13
2018-03-28T01:13:52.721Z,22.73
2018-03-28T01:16:23.029Z,22.90
2018-03-28T01:18:53.838Z,20.27
2018-03-28T01:21:25.092Z,19.97
2018-03-28T01:23:55.194Z,21.80
2018-03-28T01:26:26.401Z,19.43
2018-03-28T01:28:56.418Z,19.07
2018-03-28T01:31:27.993Z,20.80
2018-03-28T01:33:57.888Z,20.03
2018-03-28T01:36:29.986Z,19.40
2018-03-28T01:39:00.356Z,20.43
2018-03-28T01:41:34.482Z,21.40
2018-03-28T01:44:05.198Z,19.47
2018-03-28T01:46:36.265Z,20.23
2018-03-28T01:49:06.341Z,20.73
2018-03-28T01:51:37.994Z,19.10
2018-03-28T01:54:09.028Z,15.30
2018-03-28T01:56:39.911Z,14.97
2018-03-28T01:59:09.782Z,14.40
2018-03-28T02:01:44.079Z,12.47
2018-03-28T02:04:16.004Z,12.53
2018-03-28T02:06:47.693Z,10.97
2018-03-28T02:09:18.159Z,10.93
2018-03-28T02:11:49.271Z,10.03
2018-03-28T02:14:20.191Z,8.80
2018-03-28T02:16:51.396Z,8.40
2018-03-28T02:19:22.648Z,9.53
2018-03-28T02:21:54.593Z,7.90
2018-03-28T02:24:24.932Z,8.40
2018-03-28T02:26:57.903Z,8.63
2018-03-28T02:29:28.727Z,7.67
2018-03-28T02:32:01.396Z,7.80
2018-03-28T02:34:31.959Z,7.60
2018-03-28T02:37:03.730Z,7.33
2018-03-28T02:39:35.173Z,7.33
2018-03-28T02:42:06.274Z,6.97
2018-03-28T02:44:36.347Z,7.30
2018-03-28T02:47:09.705Z,7.93
2018-03-28T02:49:40.240Z,7.60
2018-03-28T02:52:14.228Z,7.50
2018-03-28T02:54:45.903Z,6.97
2018-03-28T02:57:16.894Z,8.00
2018-03-28T02:59:48.018Z,6.80
2018-03-28T03:02:19.032Z,7.00
2018-03-28T03:04:50.261Z,6.77
2018-03-28T03:07:21.288Z,6.80
2018-03-28T03:09:52.271Z,6.83
2018-03-28T03:12:23.783Z,6.97
2018-03-28T03:14:55.596Z,6.67
2018-03-28T03:17:26.438Z,7.13
2018-03-28T03:19:57.991Z,7.10
2018-03-28T03:22:28.035Z,7.20
2018-03-28T03:24:58.093Z,7.30
2018-03-28T03:27:28.234Z,8.53
2018-03-28T03:29:58.101Z,7.77
2018-03-28T03:32:31.503Z,8.10
2018-03-28T03:35:02.221Z,8.07
2018-03-28T03:37:33.468Z,8.07
2018-03-28T03:40:03.898Z,8.27
2018-03-28T03:42:35.432Z,8.40
2018-03-28T03:45:06.193Z,9.23
2018-03-28T03:47:38.164Z,8.53
2018-03-28T03:50:09.154Z,9.20
2018-03-28T03:52:41.708Z,9.53
2018-03-28T03:55:13.094Z,10.93
2018-03-28T03:57:43.888Z,11.67
2018-03-28T04:00:15.714Z,12.17
2018-03-28T04:02:47.297Z,13.37
2018-03-28T04:05:17.909Z,13.20
2018-03-28T04:07:50.164Z,12.47
2018-03-28T04:10:20.869Z,13.67
2018-03-28T04:12:53.649Z,13.17
2018-03-28T04:15:24.618Z,13.37
2018-03-28T04:17:55.493Z,13.63
2018-03-28T04:20:25.916Z,12.53
2018-03-28T04:22:59.765Z,12.73
2018-03-28T04:25:30.542Z,14.20
2018-03-28T04:28:02.303Z,16.23
2018-03-28T04:30:32.272Z,15.77
2018-03-28T04:33:06.163Z,15.80
2018-03-28T04:35:36.371Z,16.07
2018-03-28T04:38:09.610Z,16.60
2018-03-28T04:40:40.359Z,16.27
2018-03-28T04:43:12.954Z,16.67
2018-03-28T04:45:42.937Z,15.77
2018-03-28T04:48:13.420Z,13.10
2018-03-28T04:50:44.202Z,15.10
2018-03-28T04:53:16.116Z,14.23
2018-03-28T04:55:46.960Z,13.83
2018-03-28T04:58:19.316Z,15.23
2018-03-28T05:00:50.676Z,13.03
2018-03-28T05:03:22.344Z,14.23
2018-03-28T05:05:52.961Z,15.73
2018-03-28T05:08:24.318Z,14.40
2018-03-28T05:10:55.464Z,15.40
2018-03-28T05:13:26.185Z,15.10
2018-03-28T05:15:56.464Z,16.33
2018-03-28T05:18:28.491Z,16.53
2018-03-28T05:20:58.484Z,14.50
2018-03-28T05:23:31.589Z,15.67
2018-03-28T05:26:01.743Z,13.23
2018-03-28T05:28:34.400Z,12.83
2018-03-28T05:31:05.217Z,13.23
2018-03-28T05:33:37.046Z,15.33
2018-03-28T05:36:07.256Z,13.87
2018-03-28T05:38:38.606Z,13.60
2018-03-28T05:41:08.627Z,15.10
2018-03-28T05:43:51.085Z,15.17
2018-03-28T05:46:21.176Z,16.47
2018-03-28T05:48:51.189Z,17.60
2018-03-28T05:51:21.614Z,18.70
2018-03-28T05:53:51.866Z,20.00
2018-03-28T05:56:22.127Z,20.30
2018-03-28T05:58:53.438Z,19.67
2018-03-28T06:01:23.335Z,20.03
2018-03-28T06:03:53.793Z,20.07
2018-03-28T06:06:23.748Z,20.80
2018-03-28T06:08:57.044Z,21.13
2018-03-28T06:11:27.476Z,21.93
2018-03-28T06:13:57.557Z,21.07
2018-03-28T06:16:27.907Z,24.23
2018-03-28T06:19:00.773Z,20.83
2018-03-28T06:21:31.313Z,21.90
2018-03-28T06:24:04.288Z,22.07
2018-03-28T06:26:35.598Z,21.30
2018-03-28T06:29:05.513Z,22.67
2018-03-28T06:31:34.985Z,23.50
2018-03-28T06:34:08.292Z,23.00
2018-03-28T06:36:38.973Z,23.80
2018-03-28T06:39:12.555Z,25.70
2018-03-28T06:41:42.618Z,26.40
2018-03-28T06:44:16.405Z,25.03
2018-03-28T06:46:47.615Z,26.03
2018-03-28T06:49:17.295Z,24.90
2018-03-28T06:51:47.123Z,24.60
2018-03-28T06:54:20.082Z,26.63
2018-03-28T06:56:50.273Z,25.80
2018-03-28T06:59:22.274Z,26.13
2018-03-28T07:01:52.151Z,24.57
2018-03-28T07:04:23.918Z,25.47
2018-03-28T07:06:54.210Z,27.33
2018-03-28T07:09:28.427Z,25.10
2018-03-28T07:11:57.993Z,28.70
2018-03-28T07:14:31.147Z,28.43
2018-03-28T07:17:01.569Z,25.10
2018-03-28T07:19:33.336Z,28.63
2018-03-28T07:22:03.734Z,29.67
2018-03-28T07:24:34.618Z,29.63
2018-03-28T07:27:05.768Z,28.90
2018-03-28T07:29:38.024Z,27.97
2018-03-28T07:32:07.499Z,24.73
2018-03-28T07:34:41.181Z,24.97
2018-03-28T07:37:10.950Z,24.37
2018-03-28T07:39:43.425Z,20.50
2018-03-28T07:42:12.864Z,23.93
2018-03-28T07:44:45.885Z,21.70
2018-03-28T07:47:16.265Z,20.03
2018-03-28T07:49:47.969Z,20.20
2018-03-28T07:52:18.249Z,21.37
2018-03-28T07:54:51.027Z,22.07
2018-03-28T07:57:21.068Z,20.50
2018-03-28T07:59:54.436Z,21.47
2018-03-28T08:02:23.977Z,21.17
2018-03-28T08:04:55.874Z,20.40
2018-03-28T08:07:25.536Z,21.23
2018-03-28T08:09:59.310Z,19.90
2018-03-28T08:12:29.836Z,20.23
2018-03-28T08:15:02.227Z,19.43
2018-03-28T08:17:32.075Z,19.43
2018-03-28T08:20:06.615Z,18.63
2018-03-28T08:22:36.226Z,20.30
2018-03-28T08:25:07.149Z,18.67
2018-03-28T08:27:37.398Z,20.10
2018-03-28T08:30:11.879Z,19.77
2018-03-28T08:32:41.685Z,18.47
2018-03-28T08:35:14.618Z,19.40
2018-03-28T08:37:45.563Z,17.20
2018-03-28T08:40:17.091Z,19.70
2018-03-28T08:42:46.600Z,18.77
2018-03-28T08:45:28.676Z,18.23
2018-03-28T08:47:58.978Z,18.07
2018-03-28T08:50:28.519Z,17.67
2018-03-28T08:52:58.703Z,17.20
2018-03-28T08:55:28.673Z,19.03
2018-03-28T08:57:58.142Z,18.20
2018-03-28T09:00:28.977Z,18.07
2018-03-28T09:02:59.310Z,17.07
2018-03-28T09:05:29.565Z,15.43
2018-03-28T09:08:00.693Z,15.80
2018-03-28T09:10:30.894Z,16.37
2018-03-28T09:13:02.346Z,14.63
2018-03-28T09:15:33.318Z,13.87
2018-03-28T09:18:03.938Z,12.50
2018-03-28T09:20:35.999Z,13.63
2018-03-28T09:23:06.167Z,12.50
2018-03-28T09:25:39.184Z,12.17
2018-03-28T09:28:10.037Z,12.67
2018-03-28T09:30:40.674Z,12.60
2018-03-28T09:33:10.977Z,11.47
2018-03-28T09:35:44.147Z,12.20
2018-03-28T09:38:13.706Z,12.93
2018-03-28T09:40:46.026Z,11.43
2018-03-28T09:43:15.769Z,11.23
2018-03-28T09:45:49.591Z,10.97
2018-03-28T09:48:19.023Z,10.77
2018-03-28T09:51:01.027Z,11.70
2018-03-28T09:53:31.492Z,10.00
2018-03-28T09:56:02.776Z,9.60
2018-03-28T09:58:32.237Z,10.83
2018-03-28T10:01:06.018Z,9.90
2018-03-28T10:03:39.813Z,9.77
2018-03-28T10:06:10.173Z,10.80
2018-03-28T10:08:40.176Z,11.27
2018-03-28T10:11:11.061Z,10.73
2018-03-28T10:13:41.791Z,10.57
2018-03-28T10:16:12.350Z,11.63
2018-03-28T10:18:42.232Z,11.30
2018-03-28T10:21:12.712Z,12.37
2018-03-28T10:23:47.229Z,12.07
2018-03-28T10:26:18.725Z,11.77
2018-03-28T10:28:48.379Z,12.80
2018-03-28T10:31:20.881Z,10.13
2018-03-28T10:33:52.501Z,10.47
2018-03-28T10:36:21.964Z,9.87
2018-03-28T10:38:52.052Z,10.00
2018-03-28T10:41:23.844Z,8.70
2018-03-28T10:43:53.483Z,8.83
2018-03-28T10:46:23.493Z,9.57
2018-03-28T10:48:54.200Z,8.87
2018-03-28T10:51:27.078Z,10.10
2018-03-28T10:53:56.882Z,10.00
2018-03-28T10:56:29.477Z,8.70
2018-03-28T10:58:58.968Z,8.30
2018-03-28T11:01:31.587Z,8.03
2018-03-28T11:04:02.373Z,8.40
2018-03-28T11:06:33.891Z,10.40
2018-03-28T11:09:03.632Z,8.53
2018-03-28T11:11:37.086Z,8.83
2018-03-28T11:14:06.483Z,9.30
2018-03-28T11:16:38.054Z,8.77
2018-03-28T11:19:07.983Z,8.93
2018-03-28T11:21:41.635Z,9.10
2018-03-28T11:24:11.241Z,8.47
2018-03-28T11:26:44.368Z,8.70
2018-03-28T11:29:13.806Z,10.50
2018-03-28T11:31:46.981Z,8.70
2018-03-28T11:34:17.581Z,9.33
2018-03-28T11:36:51.171Z,7.43
2018-03-28T11:39:21.996Z,7.37
2018-03-28T11:41:54.081Z,7.63
2018-03-28T11:44:24.277Z,6.00
2018-03-28T11:46:58.591Z,6.90
2018-03-28T11:49:28.944Z,6.00
2018-03-28T11:52:00.811Z,6.60
2018-03-28T11:54:30.290Z,13.07
2018-03-28T11:57:04.252Z,10.17
2018-03-28T11:59:35.456Z,8.97
2018-03-28T12:02:06.769Z,28.17
2018-03-28T12:04:36.373Z,11.37
2018-03-28T12:07:10.916Z,13.43
2018-03-28T12:09:41.091Z,17.63
2018-03-28T12:12:13.223Z,12.10
2018-03-28T12:14:43.504Z,11.47
2018-03-28T12:17:15.261Z,38.03
2018-03-28T12:19:45.343Z,20.10
2018-03-28T12:22:18.326Z,29.03
2018-03-28T12:24:48.579Z,27.17
2018-03-28T12:27:19.472Z,18.13
2018-03-28T12:29:50.310Z,7.67
2018-03-28T12:32:20.820Z,9.73
2018-03-28T12:34:50.188Z,27.33
2018-03-28T12:37:23.516Z,7.77
2018-03-28T12:39:52.940Z,7.83
2018-03-28T12:42:25.119Z,9.83
2018-03-28T12:44:55.738Z,10.03
2018-03-28T12:47:28.511Z,10.53
2018-03-28T12:49:58.741Z,16.43
2018-03-28T12:52:30.215Z,5.70
2018-03-28T12:55:00.774Z,5.93
2018-03-28T12:57:33.425Z,4.83
2018-03-28T13:00:03.810Z,4.40
2018-03-28T13:02:35.790Z,4.23
2018-03-28T13:05:05.298Z,5.57
2018-03-28T13:07:37.970Z,5.43
2018-03-28T13:10:07.503Z,3.93
2018-03-28T13:12:40.895Z,4.10
2018-03-28T13:15:11.123Z,4.90
2018-03-28T13:17:42.606Z,4.60
2018-03-28T13:20:12.104Z,5.07
2018-03-28T13:22:45.090Z,4.37
2018-03-28T13:25:15.234Z,4.57
2018-03-28T13:27:48.092Z,5.83
2018-03-28T13:30:18.014Z,5.40
2018-03-28T13:32:51.908Z,6.50
2018-03-28T13:35:21.382Z,6.63
2018-03-28T13:37:55.179Z,6.03
2018-03-28T13:40:25.370Z,5.87
2018-03-28T13:42:58.899Z,6.30
2018-03-28T13:58:45.841Z,6.47
2018-03-28T14:01:16.236Z,6.20
2018-03-28T14:03:46.783Z,6.37
2018-03-28T14:06:17.342Z,6.63
2018-03-28T14:08:47.831Z,6.07
2018-03-28T14:11:18.934Z,6.23
2018-03-28T14:13:48.340Z,5.90
2018-03-28T14:16:20.006Z,6.93
2018-03-28T14:18:51.327Z,6.57
2018-03-28T14:21:22.585Z,7.53
2018-03-28T14:23:52.008Z,6.50
2018-03-28T14:26:24.091Z,6.17
2018-03-28T14:28:54.244Z,6.87
2018-03-28T14:31:27.236Z,6.80
2018-03-28T14:33:57.030Z,7.33
2018-03-28T14:36:30.406Z,6.97
2018-03-28T14:39:00.191Z,7.00
2018-03-28T14:41:34.051Z,6.87
2018-03-28T14:44:03.466Z,6.40
2018-03-28T14:46:35.586Z,6.67
2018-03-28T14:49:05.681Z,6.17
2018-03-28T14:51:38.638Z,6.53
2018-03-28T14:54:09.007Z,6.93
2018-03-28T14:56:41.757Z,4.53
2018-03-28T14:59:11.827Z,4.63
2018-03-28T15:01:43.600Z,4.93
2018-03-28T15:04:12.922Z,5.43
2018-03-28T15:06:46.255Z,4.53
2018-03-28T15:09:16.709Z,4.07
2018-03-28T15:11:51.152Z,3.87
2018-03-28T15:14:20.510Z,4.17
2018-03-28T15:16:54.383Z,4.00
2018-03-28T15:19:23.751Z,3.40
2018-03-28T15:21:56.942Z,3.37
2018-03-28T15:24:26.679Z,3.00
2018-03-28T15:26:59.850Z,3.07
2018-03-28T15:29:30.738Z,2.30
2018-03-28T15:32:03.142Z,2.00
2018-03-28T15:34:34.315Z,3.63
2018-03-28T15:37:06.701Z,3.10
2018-03-28T15:39:37.643Z,1.63
2018-03-28T15:42:10.131Z,1.77
2018-03-28T15:44:40.498Z,1.40
2018-03-28T15:47:13.726Z,1.60
2018-03-28T15:49:43.850Z,2.00
2018-03-28T15:52:15.404Z,1.80
2018-03-28T15:54:45.642Z,2.03
2018-03-28T15:57:17.406Z,1.40
2018-03-28T15:59:47.122Z,1.57
2018-03-28T16:02:19.572Z,2.20
2018-03-28T16:04:49.083Z,2.10
2018-03-28T16:07:22.601Z,1.80
2018-03-28T16:09:52.783Z,2.20
2018-03-28T16:12:25.077Z,2.80
2018-03-28T16:14:55.747Z,2.33
2018-03-28T16:17:26.836Z,36.63
2018-03-28T16:19:56.928Z,2.13
2018-03-28T16:22:29.856Z,1.50
2018-03-28T16:25:00.321Z,1.50
2018-03-28T16:27:30.833Z,1.40
2018-03-28T16:30:01.356Z,1.77
2018-03-28T16:32:32.464Z,1.70
2018-03-28T16:35:02.930Z,1.50
2018-03-28T16:37:36.788Z,1.67
2018-03-28T16:40:06.865Z,1.57
2018-03-28T16:42:38.185Z,1.57
2018-03-28T16:45:08.866Z,1.50
2018-03-28T16:47:41.184Z,1.70
2018-03-28T16:50:10.478Z,1.90
2018-03-28T16:52:44.064Z,1.80
2018-03-28T16:55:13.690Z,1.67
2018-03-28T16:57:46.249Z,1.27
2018-03-28T17:00:15.683Z,1.10
2018-03-28T17:02:57.746Z,1.10
2018-03-28T17:05:28.498Z,1.00
2018-03-28T17:07:58.710Z,1.30
2018-03-28T17:10:28.497Z,1.10
2018-03-28T17:12:58.699Z,1.30
2018-03-28T17:15:28.959Z,1.20
2018-03-28T17:17:58.919Z,1.00
2018-03-28T17:20:29.082Z,1.00
2018-03-28T17:23:02.302Z,1.10
2018-03-28T17:25:32.742Z,1.00
2018-03-28T17:28:05.685Z,1.47
2018-03-28T17:30:35.408Z,1.90
2018-03-28T17:33:10.232Z,1.73
2018-03-28T17:35:40.579Z,1.40
2018-03-28T17:38:14.841Z,1.50
2018-03-28T17:40:45.777Z,2.07
2018-03-28T17:43:17.147Z,1.80
2018-03-28T17:45:46.837Z,2.50
2018-03-28T17:48:18.608Z,3.30
2018-03-28T17:50:48.039Z,3.53
2018-03-28T17:53:21.095Z,3.50
2018-03-28T17:55:50.467Z,3.53
2018-03-28T17:58:22.478Z,3.87
2018-03-28T18:00:52.130Z,4.67
2018-03-28T18:03:26.003Z,3.50
2018-03-28T18:05:55.352Z,3.77
2018-03-28T18:08:27.352Z,3.23
2018-03-28T18:10:56.598Z,3.67
2018-03-28T18:13:30.382Z,4.13
2018-03-28T18:16:02.731Z,3.80
2018-03-28T18:18:33.392Z,4.63
2018-03-28T18:21:05.188Z,5.10
2018-03-28T18:23:38.989Z,4.00
2018-03-28T18:26:16.662Z,5.47
2018-03-28T18:28:48.123Z,5.13
2018-03-28T18:31:18.760Z,6.13
2018-03-28T18:33:49.216Z,5.87
2018-03-28T18:36:19.866Z,5.60
2018-03-28T18:38:50.448Z,5.33
2018-03-28T18:41:20.319Z,6.13
2018-03-28T18:43:50.402Z,7.13
2018-03-28T18:46:20.140Z,7.47
2018-03-28T18:48:51.260Z,7.30
2018-03-28T18:51:20.817Z,6.97
2018-03-28T18:53:50.764Z,6.50
2018-03-28T18:56:22.124Z,8.40
2018-03-28T18:58:53.757Z,7.00
2018-03-28T19:01:23.562Z,6.80
2018-03-28T19:03:57.691Z,6.13
2018-03-28T19:06:28.050Z,5.50
2018-03-28T19:09:00.715Z,6.03
2018-03-28T19:11:30.829Z,6.53
2018-03-28T19:14:03.363Z,6.97
2018-03-28T19:16:33.996Z,6.80
2018-03-28T19:19:06.881Z,7.90
2018-03-28T19:21:36.336Z,6.97
2018-03-28T19:24:08.724Z,6.90
2018-03-28T19:26:38.091Z,7.47
2018-03-28T19:29:20.673Z,7.87
2018-03-28T19:31:50.822Z,7.33
2018-03-28T19:34:20.651Z,7.50
2018-03-28T19:36:51.276Z,7.23
2018-03-28T19:39:20.792Z,7.47
2018-03-28T19:41:50.590Z,8.63
2018-03-28T19:44:20.474Z,10.20
2018-03-28T19:46:51.692Z,9.83
2018-03-28T19:49:21.478Z,10.40
2018-03-28T19:51:50.863Z,10.73
2018-03-28T19:54:22.703Z,11.53
2018-03-28T19:56:53.224Z,11.17
2018-03-28T19:59:25.687Z,10.20
2018-03-28T20:01:55.740Z,9.87
2018-03-28T20:04:27.722Z,11.13
2018-03-28T20:06:57.276Z,12.17
2018-03-28T20:09:31.359Z,9.83
2018-03-28T20:12:00.660Z,9.37
2018-03-28T20:14:42.733Z,8.70
2018-03-28T20:17:12.458Z,9.90
2018-03-28T20:19:41.979Z,8.43
2018-03-28T20:22:11.497Z,9.20
2018-03-28T20:24:41.157Z,10.40
2018-03-28T20:27:11.683Z,9.00
2018-03-28T20:29:41.072Z,7.63
2018-03-28T20:32:11.579Z,6.40
2018-03-28T20:34:41.758Z,6.47
2018-03-28T20:37:11.960Z,5.73
2018-03-28T20:39:45.356Z,4.63
2018-03-28T20:42:15.497Z,6.97
2018-03-28T20:44:47.899Z,6.13
2018-03-28T20:47:17.350Z,5.63
2018-03-28T20:49:51.657Z,5.93
2018-03-28T20:52:22.098Z,5.27
2018-03-28T20:54:54.577Z,5.03
2018-03-28T20:57:23.954Z,4.90
2018-03-28T20:59:56.106Z,5.17
2018-03-28T21:02:25.879Z,6.00
2018-03-28T21:04:59.647Z,7.10
2018-03-28T21:07:29.865Z,6.97
2018-03-28T21:10:03.781Z,5.67
2018-03-28T21:12:33.269Z,6.57
2018-03-28T21:15:07.777Z,6.40
2018-03-28T21:17:37.654Z,4.63
2018-03-28T21:20:10.904Z,5.93
2018-03-28T21:22:42.606Z,5.73
2018-03-28T21:25:18.392Z,6.60
2018-03-28T21:27:48.538Z,6.53
2018-03-28T21:30:18.795Z,5.23
2018-03-28T21:32:48.233Z,5.00
2018-03-28T21:35:18.390Z,6.00
2018-03-28T21:37:50.024Z,6.37
2018-03-28T21:40:20.649Z,5.20
2018-03-28T21:42:50.385Z,5.60
2018-03-28T21:45:22.054Z,6.70
2018-03-28T21:47:51.530Z,6.60
2018-03-28T21:50:25.659Z,6.97
2018-03-28T21:52:55.760Z,6.70
2018-03-28T21:55:27.846Z,5.00
2018-03-28T21:57:57.331Z,6.63
2018-03-28T22:00:31.660Z,6.73
2018-03-28T22:03:01.366Z,7.40
2018-03-28T22:05:35.472Z,6.17
2018-03-28T22:08:07.630Z,5.47
2018-03-28T22:10:38.052Z,6.30
2018-03-28T22:13:12.035Z,4.97
2018-03-28T22:15:42.839Z,7.03
2018-03-28T22:18:15.172Z,6.00
2018-03-28T22:20:45.721Z,6.83
2018-03-28T22:23:17.419Z,7.53
2018-03-28T22:25:47.807Z,5.70
2018-03-28T22:28:17.968Z,7.87
2018-03-28T22:30:49.258Z,9.03
2018-03-28T22:33:19.862Z,9.80
2018-03-28T22:35:50.491Z,9.20
2018-03-28T22:38:20.814Z,10.47
2018-03-28T22:40:53.019Z,10.73
2018-03-28T22:43:23.991Z,13.07
2018-03-28T22:45:57.350Z,12.20
2018-03-28T22:48:27.231Z,13.83
2018-03-28T22:51:00.531Z,13.17
2018-03-28T22:53:31.050Z,15.07
2018-03-28T22:56:02.245Z,13.73
2018-03-28T22:58:31.687Z,14.53
2018-03-28T23:01:04.530Z,13.83
2018-03-28T23:03:34.079Z,11.27
2018-03-28T23:06:16.567Z,11.43
2018-03-28T23:08:46.372Z,10.20
2018-03-28T23:11:15.830Z,12.70
2018-03-28T23:13:45.701Z,11.03
2018-03-28T23:16:16.087Z,10.63
2018-03-28T23:18:46.446Z,9.93
2018-03-28T23:21:18.121Z,11.40
2018-03-28T23:23:48.953Z,10.90
2018-03-28T23:26:18.861Z,11.53
2018-03-28T23:28:48.524Z,11.33
2018-03-28T23:31:21.419Z,11.03
2018-03-28T23:33:50.949Z,10.70
2018-03-28T23:36:23.791Z,12.27
2018-03-28T23:38:53.570Z,11.53
2018-03-28T23:41:26.161Z,12.43
2018-03-28T23:43:56.408Z,13.50
2018-03-28T23:46:28.806Z,12.83
2018-03-28T23:48:59.008Z,13.30
2018-03-28T23:51:30.359Z,12.13
2018-03-28T23:54:00.696Z,12.80
2018-03-28T23:56:43.031Z,12.60
2018-03-28T23:59:13.370Z,12.23
